sensor_id;sensor_type;location;lat;lon;timestamp;P1;durP1;ratioP1;P2;durP2;ratioP2
11139;SDS011;5624;49.388;11.350;2022-09-09T00:04:38;4.70;;;1.80;;
11139;SDS011;5624;49.388;11.350;2022-09-09T00:12:25;3.70;;;1.80;;
11139;SDS011;5624;49.388;11.350;2022-09-09T00:20:16;6.80;;;2.30;;
11139;SDS011;5624;49.388;11.350;2022-09-09T00:23:00;3.73;;;2.03;;
11139;SDS011;5624;49.388;11.350;2022-09-09T00:25:43;4.13;;;2.43;;
11139;SDS011;5624;49.388;11.350;2022-09-09T00:28:25;3.57;;;2.50;;
11139;SDS011;5624;49.388;11.350;2022-09-09T00:30:55;2.63;;;2.00;;
11139;SDS011;5624;49.388;11.350;2022-09-09T00:33:22;4.30;;;2.53;;
11139;SDS011;5624;49.388;11.350;2022-09-09T00:35:51;5.23;;;2.53;;
11139;SDS011;5624;49.388;11.350;2022-09-09T00:44:31;3.97;;;2.40;;
11139;SDS011;5624;49.388;11.350;2022-09-09T00:54:47;3.97;;;2.33;;
11139;SDS011;5624;49.388;11.350;2022-09-09T00:57:28;3.63;;;2.20;;
11139;SDS011;5624;49.388;11.350;2022-09-09T01:05:24;7.87;;;2.50;;
11139;SDS011;5624;49.388;11.350;2022-09-09T01:07:52;3.17;;;2.13;;
11139;SDS011;5624;49.388;11.350;2022-09-09T01:10:53;4.50;;;2.10;;
11139;SDS011;5624;49.388;11.350;2022-09-09T01:13:30;4.87;;;2.90;;
11139;SDS011;5624;49.388;11.350;2022-09-09T01:15:59;4.60;;;2.60;;
11139;SDS011;5624;49.388;11.350;2022-09-09T01:18:29;3.90;;;2.20;;
11139;SDS011;5624;49.388;11.350;2022-09-09T01:21:02;4.00;;;2.30;;
11139;SDS011;5624;49.388;11.350;2022-09-09T01:23:59;6.63;;;2.20;;
11139;SDS011;5624;49.388;11.350;2022-09-09T01:26:38;2.57;;;1.90;;
11139;SDS011;5624;49.388;11.350;2022-09-09T01:29:08;3.10;;;2.40;;
11139;SDS011;5624;49.388;11.350;2022-09-09T01:31:39;6.67;;;2.40;;
11139;SDS011;5624;49.388;11.350;2022-09-09T01:34:11;4.37;;;2.83;;
11139;SDS011;5624;49.388;11.350;2022-09-09T01:39:07;3.53;;;2.60;;
11139;SDS011;5624;49.388;11.350;2022-09-09T01:41:33;4.40;;;2.97;;
11139;SDS011;5624;49.388;11.350;2022-09-09T01:43:59;4.27;;;2.87;;
11139;SDS011;5624;49.388;11.350;2022-09-09T01:46:25;5.03;;;2.60;;
11139;SDS011;5624;49.388;11.350;2022-09-09T01:48:51;4.30;;;2.57;;
11139;SDS011;5624;49.388;11.350;2022-09-09T01:51:19;5.70;;;2.67;;
11139;SDS011;5624;49.388;11.350;2022-09-09T01:53:45;4.37;;;2.70;;
11139;SDS011;5624;49.388;11.350;2022-09-09T02:01:44;4.17;;;3.13;;
11139;SDS011;5624;49.388;11.350;2022-09-09T02:04:37;4.50;;;2.77;;
11139;SDS011;5624;49.388;11.350;2022-09-09T02:07:03;3.40;;;2.37;;
11139;SDS011;5624;49.388;11.350;2022-09-09T02:09:40;4.27;;;2.40;;
11139;SDS011;5624;49.388;11.350;2022-09-09T02:12:11;3.10;;;2.17;;
11139;SDS011;5624;49.388;11.350;2022-09-09T02:14:41;3.07;;;2.40;;
11139;SDS011;5624;49.388;11.350;2022-09-09T02:17:12;4.87;;;2.73;;
11139;SDS011;5624;49.388;11.350;2022-09-09T02:19:44;4.63;;;2.80;;
11139;SDS011;5624;49.388;11.350;2022-09-09T02:22:14;2.80;;;2.33;;
11139;SDS011;5624;49.388;11.350;2022-09-09T02:24:42;4.73;;;2.10;;
11139;SDS011;5624;49.388;11.350;2022-09-09T02:27:11;4.23;;;2.60;;
11139;SDS011;5624;49.388;11.350;2022-09-09T02:29:41;3.63;;;2.13;;
11139;SDS011;5624;49.388;11.350;2022-09-09T02:32:14;3.77;;;2.03;;
11139;SDS011;5624;49.388;11.350;2022-09-09T02:34:45;2.70;;;2.10;;
11139;SDS011;5624;49.388;11.350;2022-09-09T02:37:13;3.77;;;2.00;;
11139;SDS011;5624;49.388;11.350;2022-09-09T02:39:42;3.20;;;2.00;;
11139;SDS011;5624;49.388;11.350;2022-09-09T02:42:08;3.40;;;2.20;;
11139;SDS011;5624;49.388;11.350;2022-09-09T02:44:34;4.63;;;2.87;;
11139;SDS011;5624;49.388;11.350;2022-09-09T02:49:53;6.40;;;2.17;;
11139;SDS011;5624;49.388;11.350;2022-09-09T02:52:46;3.60;;;2.07;;
11139;SDS011;5624;49.388;11.350;2022-09-09T02:55:55;5.13;;;2.30;;
11139;SDS011;5624;49.388;11.350;2022-09-09T02:58:22;8.70;;;3.17;;
11139;SDS011;5624;49.388;11.350;2022-09-09T03:00:49;4.50;;;2.37;;
11139;SDS011;5624;49.388;11.350;2022-09-09T03:03:16;3.70;;;2.73;;
11139;SDS011;5624;49.388;11.350;2022-09-09T03:05:43;3.03;;;2.20;;
11139;SDS011;5624;49.388;11.350;2022-09-09T03:08:10;6.37;;;2.60;;
11139;SDS011;5624;49.388;11.350;2022-09-09T03:10:36;4.07;;;2.40;;
11139;SDS011;5624;49.388;11.350;2022-09-09T03:13:02;5.57;;;2.30;;
11139;SDS011;5624;49.388;11.350;2022-09-09T03:15:30;5.20;;;2.57;;
11139;SDS011;5624;49.388;11.350;2022-09-09T03:17:57;5.73;;;2.67;;
11139;SDS011;5624;49.388;11.350;2022-09-09T03:20:25;3.27;;;2.53;;
11139;SDS011;5624;49.388;11.350;2022-09-09T03:22:52;3.30;;;2.30;;
11139;SDS011;5624;49.388;11.350;2022-09-09T03:25:18;6.10;;;2.30;;
11139;SDS011;5624;49.388;11.350;2022-09-09T03:27:45;3.37;;;2.60;;
11139;SDS011;5624;49.388;11.350;2022-09-09T03:30:10;5.60;;;2.20;;
11139;SDS011;5624;49.388;11.350;2022-09-09T03:32:36;4.87;;;2.70;;
11139;SDS011;5624;49.388;11.350;2022-09-09T03:35:02;4.77;;;2.57;;
11139;SDS011;5624;49.388;11.350;2022-09-09T03:37:28;4.83;;;2.60;;
11139;SDS011;5624;49.388;11.350;2022-09-09T03:39:54;4.87;;;2.57;;
11139;SDS011;5624;49.388;11.350;2022-09-09T03:42:20;5.50;;;2.70;;
11139;SDS011;5624;49.388;11.350;2022-09-09T03:44:46;4.13;;;2.57;;
11139;SDS011;5624;49.388;11.350;2022-09-09T03:47:14;5.27;;;2.60;;
11139;SDS011;5624;49.388;11.350;2022-09-09T03:49:44;4.37;;;2.97;;
11139;SDS011;5624;49.388;11.350;2022-09-09T03:52:10;3.20;;;2.50;;
11139;SDS011;5624;49.388;11.350;2022-09-09T03:54:36;5.90;;;2.50;;
11139;SDS011;5624;49.388;11.350;2022-09-09T03:57:03;5.40;;;2.90;;
11139;SDS011;5624;49.388;11.350;2022-09-09T03:59:29;4.20;;;2.37;;
11139;SDS011;5624;49.388;11.350;2022-09-09T04:01:55;3.13;;;2.50;;
11139;SDS011;5624;49.388;11.350;2022-09-09T04:04:22;4.00;;;3.00;;
11139;SDS011;5624;49.388;11.350;2022-09-09T04:06:48;4.10;;;2.33;;
11139;SDS011;5624;49.388;11.350;2022-09-09T04:09:13;4.63;;;2.70;;
11139;SDS011;5624;49.388;11.350;2022-09-09T04:11:39;5.87;;;2.97;;
11139;SDS011;5624;49.388;11.350;2022-09-09T04:14:05;5.93;;;3.00;;
11139;SDS011;5624;49.388;11.350;2022-09-09T04:16:32;4.77;;;3.30;;
11139;SDS011;5624;49.388;11.350;2022-09-09T04:18:58;6.80;;;3.00;;
11139;SDS011;5624;49.388;11.350;2022-09-09T04:21:25;5.10;;;3.20;;
11139;SDS011;5624;49.388;11.350;2022-09-09T04:23:51;8.30;;;3.00;;
11139;SDS011;5624;49.388;11.350;2022-09-09T04:26:17;4.70;;;3.17;;
11139;SDS011;5624;49.388;11.350;2022-09-09T04:28:42;5.97;;;3.07;;
11139;SDS011;5624;49.388;11.350;2022-09-09T04:31:10;3.87;;;2.73;;
11139;SDS011;5624;49.388;11.350;2022-09-09T04:33:42;5.93;;;3.70;;
11139;SDS011;5624;49.388;11.350;2022-09-09T04:36:08;3.63;;;3.03;;
11139;SDS011;5624;49.388;11.350;2022-09-09T04:38:35;4.67;;;2.80;;
11139;SDS011;5624;49.388;11.350;2022-09-09T04:41:01;3.93;;;3.23;;
11139;SDS011;5624;49.388;11.350;2022-09-09T04:43:27;5.77;;;3.53;;
11139;SDS011;5624;49.388;11.350;2022-09-09T04:45:53;6.23;;;2.73;;
11139;SDS011;5624;49.388;11.350;2022-09-09T04:48:19;3.93;;;2.57;;
11139;SDS011;5624;49.388;11.350;2022-09-09T04:50:58;4.53;;;2.87;;
11139;SDS011;5624;49.388;11.350;2022-09-09T04:53:30;4.50;;;2.97;;
11139;SDS011;5624;49.388;11.350;2022-09-09T04:56:04;6.83;;;2.87;;
11139;SDS011;5624;49.388;11.350;2022-09-09T04:58:32;4.40;;;2.47;;
11139;SDS011;5624;49.388;11.350;2022-09-09T05:01:04;5.93;;;2.77;;
11139;SDS011;5624;49.388;11.350;2022-09-09T05:03:31;7.67;;;3.10;;
11139;SDS011;5624;49.388;11.350;2022-09-09T05:08:29;5.60;;;2.90;;
11139;SDS011;5624;49.388;11.350;2022-09-09T05:10:55;6.53;;;2.97;;
11139;SDS011;5624;49.388;11.350;2022-09-09T05:13:23;4.00;;;2.97;;
11139;SDS011;5624;49.388;11.350;2022-09-09T05:15:53;5.50;;;2.63;;
11139;SDS011;5624;49.388;11.350;2022-09-09T05:18:19;5.07;;;2.80;;
11139;SDS011;5624;49.388;11.350;2022-09-09T05:20:47;2.93;;;2.57;;
11139;SDS011;5624;49.388;11.350;2022-09-09T05:23:16;5.60;;;2.57;;
11139;SDS011;5624;49.388;11.350;2022-09-09T05:25:42;4.33;;;2.43;;
11139;SDS011;5624;49.388;11.350;2022-09-09T05:28:09;3.37;;;2.73;;
11139;SDS011;5624;49.388;11.350;2022-09-09T05:30:36;4.50;;;2.67;;
11139;SDS011;5624;49.388;11.350;2022-09-09T05:33:02;6.63;;;2.80;;
11139;SDS011;5624;49.388;11.350;2022-09-09T05:35:29;5.73;;;2.90;;
11139;SDS011;5624;49.388;11.350;2022-09-09T05:37:58;4.97;;;3.23;;
11139;SDS011;5624;49.388;11.350;2022-09-09T05:40:25;7.97;;;3.30;;
11139;SDS011;5624;49.388;11.350;2022-09-09T05:42:51;4.87;;;3.00;;
11139;SDS011;5624;49.388;11.350;2022-09-09T05:45:18;5.57;;;3.47;;
11139;SDS011;5624;49.388;11.350;2022-09-09T05:47:50;3.67;;;2.80;;
11139;SDS011;5624;49.388;11.350;2022-09-09T05:50:20;5.87;;;3.10;;
11139;SDS011;5624;49.388;11.350;2022-09-09T05:52:46;7.53;;;2.93;;
11139;SDS011;5624;49.388;11.350;2022-09-09T05:55:13;5.83;;;2.50;;
11139;SDS011;5624;49.388;11.350;2022-09-09T05:57:40;4.83;;;2.90;;
11139;SDS011;5624;49.388;11.350;2022-09-09T06:00:07;5.33;;;2.53;;
11139;SDS011;5624;49.388;11.350;2022-09-09T06:02:33;7.10;;;3.07;;
11139;SDS011;5624;49.388;11.350;2022-09-09T06:05:01;7.30;;;2.93;;
11139;SDS011;5624;49.388;11.350;2022-09-09T06:07:27;4.57;;;3.27;;
11139;SDS011;5624;49.388;11.350;2022-09-09T06:09:53;5.43;;;2.70;;
11139;SDS011;5624;49.388;11.350;2022-09-09T06:12:19;5.20;;;3.30;;
11139;SDS011;5624;49.388;11.350;2022-09-09T06:14:45;5.00;;;2.50;;
11139;SDS011;5624;49.388;11.350;2022-09-09T06:17:11;3.33;;;2.53;;
11139;SDS011;5624;49.388;11.350;2022-09-09T06:19:37;4.17;;;2.60;;
11139;SDS011;5624;49.388;11.350;2022-09-09T06:22:02;4.17;;;2.67;;
11139;SDS011;5624;49.388;11.350;2022-09-09T06:24:28;9.07;;;3.57;;
11139;SDS011;5624;49.388;11.350;2022-09-09T06:26:55;3.30;;;2.27;;
11139;SDS011;5624;49.388;11.350;2022-09-09T06:29:22;3.63;;;2.43;;
11139;SDS011;5624;49.388;11.350;2022-09-09T06:31:48;3.77;;;2.40;;
11139;SDS011;5624;49.388;11.350;2022-09-09T06:34:14;4.07;;;2.43;;
11139;SDS011;5624;49.388;11.350;2022-09-09T06:36:40;6.83;;;2.33;;
11139;SDS011;5624;49.388;11.350;2022-09-09T06:39:06;4.35;;;2.17;;
11139;SDS011;5624;49.388;11.350;2022-09-09T06:41:33;4.37;;;2.63;;
11139;SDS011;5624;49.388;11.350;2022-09-09T06:43:59;3.70;;;1.90;;
11139;SDS011;5624;49.388;11.350;2022-09-09T06:46:26;3.58;;;1.73;;
11139;SDS011;5624;49.388;11.350;2022-09-09T06:48:54;2.60;;;1.70;;
11139;SDS011;5624;49.388;11.350;2022-09-09T06:51:22;4.18;;;2.20;;
11139;SDS011;5624;49.388;11.350;2022-09-09T06:53:55;3.63;;;1.60;;
11139;SDS011;5624;49.388;11.350;2022-09-09T06:56:27;2.90;;;1.67;;
11139;SDS011;5624;49.388;11.350;2022-09-09T06:58:57;3.38;;;1.58;;
11139;SDS011;5624;49.388;11.350;2022-09-09T07:01:26;1.48;;;1.35;;
11139;SDS011;5624;49.388;11.350;2022-09-09T07:03:55;4.40;;;1.60;;
11139;SDS011;5624;49.388;11.350;2022-09-09T07:06:27;5.60;;;2.08;;
11139;SDS011;5624;49.388;11.350;2022-09-09T07:08:55;3.35;;;1.40;;
11139;SDS011;5624;49.388;11.350;2022-09-09T07:11:29;2.90;;;1.48;;
11139;SDS011;5624;49.388;11.350;2022-09-09T07:13:56;4.25;;;1.55;;
11139;SDS011;5624;49.388;11.350;2022-09-09T07:16:24;4.60;;;1.73;;
11139;SDS011;5624;49.388;11.350;2022-09-09T07:18:50;3.33;;;1.50;;
11139;SDS011;5624;49.388;11.350;2022-09-09T07:21:17;2.75;;;1.58;;
11139;SDS011;5624;49.388;11.350;2022-09-09T07:23:44;3.60;;;1.48;;
11139;SDS011;5624;49.388;11.350;2022-09-09T07:28:38;6.43;;;1.70;;
11139;SDS011;5624;49.388;11.350;2022-09-09T07:31:04;2.17;;;1.38;;
11139;SDS011;5624;49.388;11.350;2022-09-09T07:33:32;5.47;;;1.58;;
11139;SDS011;5624;49.388;11.350;2022-09-09T07:38:39;3.20;;;1.15;;
11139;SDS011;5624;49.388;11.350;2022-09-09T07:41:11;2.72;;;1.33;;
11139;SDS011;5624;49.388;11.350;2022-09-09T07:43:42;2.80;;;1.15;;
11139;SDS011;5624;49.388;11.350;2022-09-09T07:46:10;4.78;;;1.52;;
11139;SDS011;5624;49.388;11.350;2022-09-09T07:48:37;4.07;;;1.23;;
11139;SDS011;5624;49.388;11.350;2022-09-09T07:51:10;2.33;;;1.23;;
11139;SDS011;5624;49.388;11.350;2022-09-09T07:53:44;5.78;;;1.45;;
11139;SDS011;5624;49.388;11.350;2022-09-09T07:56:13;4.25;;;1.50;;
11139;SDS011;5624;49.388;11.350;2022-09-09T07:58:47;4.38;;;1.48;;
11139;SDS011;5624;49.388;11.350;2022-09-09T08:01:14;2.60;;;1.10;;
11139;SDS011;5624;49.388;11.350;2022-09-09T08:03:43;2.88;;;1.40;;
11139;SDS011;5624;49.388;11.350;2022-09-09T08:06:10;1.98;;;1.10;;
11139;SDS011;5624;49.388;11.350;2022-09-09T08:08:38;3.38;;;1.40;;
11139;SDS011;5624;49.388;11.350;2022-09-09T08:11:16;2.80;;;1.17;;
11139;SDS011;5624;49.388;11.350;2022-09-09T08:13:43;4.00;;;1.48;;
11139;SDS011;5624;49.388;11.350;2022-09-09T08:16:16;4.15;;;1.52;;
11139;SDS011;5624;49.388;11.350;2022-09-09T08:18:52;4.10;;;1.90;;
11139;SDS011;5624;49.388;11.350;2022-09-09T08:21:20;3.80;;;1.90;;
11139;SDS011;5624;49.388;11.350;2022-09-09T08:23:49;6.43;;;1.83;;
11139;SDS011;5624;49.388;11.350;2022-09-09T08:26:18;3.95;;;1.75;;
11139;SDS011;5624;49.388;11.350;2022-09-09T08:28:49;3.22;;;1.30;;
11139;SDS011;5624;49.388;11.350;2022-09-09T08:31:20;3.25;;;1.30;;
11139;SDS011;5624;49.388;11.350;2022-09-09T08:33:48;3.95;;;1.33;;
11139;SDS011;5624;49.388;11.350;2022-09-09T08:36:15;4.93;;;1.35;;
11139;SDS011;5624;49.388;11.350;2022-09-09T08:38:43;2.20;;;1.45;;
11139;SDS011;5624;49.388;11.350;2022-09-09T08:43:41;3.67;;;1.35;;
11139;SDS011;5624;49.388;11.350;2022-09-09T08:46:22;2.78;;;1.40;;
11139;SDS011;5624;49.388;11.350;2022-09-09T08:48:56;3.70;;;0.95;;
11139;SDS011;5624;49.388;11.350;2022-09-09T08:51:29;4.35;;;1.40;;
11139;SDS011;5624;49.388;11.350;2022-09-09T08:53:59;2.70;;;0.90;;
11139;SDS011;5624;49.388;11.350;2022-09-09T08:56:28;3.53;;;1.20;;
11139;SDS011;5624;49.388;11.350;2022-09-09T08:58:59;2.42;;;1.02;;
11139;SDS011;5624;49.388;11.350;2022-09-09T09:04:24;2.17;;;0.93;;
11139;SDS011;5624;49.388;11.350;2022-09-09T09:12:38;3.17;;;1.13;;
11139;SDS011;5624;49.388;11.350;2022-09-09T09:15:18;3.25;;;1.10;;
11139;SDS011;5624;49.388;11.350;2022-09-09T09:17:48;2.80;;;0.80;;
11139;SDS011;5624;49.388;11.350;2022-09-09T09:20:15;2.47;;;0.95;;
11139;SDS011;5624;49.388;11.350;2022-09-09T09:30:21;3.42;;;1.10;;
11139;SDS011;5624;49.388;11.350;2022-09-09T09:33:32;4.05;;;1.40;;
11139;SDS011;5624;49.388;11.350;2022-09-09T09:35:45;3.60;;;1.30;;
11139;SDS011;5624;49.388;11.350;2022-09-09T09:38:18;2.40;;;1.00;;
11139;SDS011;5624;49.388;11.350;2022-09-09T09:40:54;2.72;;;1.05;;
11139;SDS011;5624;49.388;11.350;2022-09-09T09:43:35;1.85;;;0.88;;
11139;SDS011;5624;49.388;11.350;2022-09-09T09:46:05;5.47;;;1.10;;
11139;SDS011;5624;49.388;11.350;2022-09-09T09:48:43;3.53;;;1.00;;
11139;SDS011;5624;49.388;11.350;2022-09-09T09:51:12;2.17;;;0.80;;
11139;SDS011;5624;49.388;11.350;2022-09-09T09:53:42;4.43;;;0.80;;
11139;SDS011;5624;49.388;11.350;2022-09-09T09:56:09;2.70;;;1.20;;
11139;SDS011;5624;49.388;11.350;2022-09-09T10:03:52;4.38;;;1.25;;
11139;SDS011;5624;49.388;11.350;2022-09-09T10:06:32;2.38;;;0.82;;
11139;SDS011;5624;49.388;11.350;2022-09-09T10:08:59;3.90;;;1.35;;
11139;SDS011;5624;49.388;11.350;2022-09-09T10:11:35;2.80;;;1.05;;
11139;SDS011;5624;49.388;11.350;2022-09-09T10:22:35;1.77;;;0.73;;
11139;SDS011;5624;49.388;11.350;2022-09-09T10:33:41;3.65;;;1.00;;
11139;SDS011;5624;49.388;11.350;2022-09-09T10:36:23;3.17;;;0.80;;
11139;SDS011;5624;49.388;11.350;2022-09-09T10:47:28;2.95;;;1.13;;
11139;SDS011;5624;49.388;11.350;2022-09-09T10:50:12;4.53;;;0.98;;
11139;SDS011;5624;49.388;11.350;2022-09-09T10:56:12;1.77;;;1.02;;
11139;SDS011;5624;49.388;11.350;2022-09-09T10:58:55;2.78;;;0.70;;
11139;SDS011;5624;49.388;11.350;2022-09-09T11:01:53;2.92;;;1.15;;
11139;SDS011;5624;49.388;11.350;2022-09-09T11:04:32;3.80;;;0.93;;
11139;SDS011;5624;49.388;11.350;2022-09-09T11:07:05;2.08;;;0.82;;
11139;SDS011;5624;49.388;11.350;2022-09-09T11:09:42;2.67;;;0.93;;
11139;SDS011;5624;49.388;11.350;2022-09-09T11:12:15;4.35;;;0.98;;
11139;SDS011;5624;49.388;11.350;2022-09-09T11:14:55;2.97;;;0.90;;
11139;SDS011;5624;49.388;11.350;2022-09-09T11:17:40;2.60;;;1.05;;
11139;SDS011;5624;49.388;11.350;2022-09-09T11:20:12;3.13;;;0.93;;
11139;SDS011;5624;49.388;11.350;2022-09-09T11:22:45;2.55;;;1.02;;
11139;SDS011;5624;49.388;11.350;2022-09-09T11:25:20;3.78;;;1.15;;
11139;SDS011;5624;49.388;11.350;2022-09-09T11:28:07;2.78;;;0.90;;
11139;SDS011;5624;49.388;11.350;2022-09-09T11:38:52;4.55;;;0.98;;
11139;SDS011;5624;49.388;11.350;2022-09-09T11:41:33;2.13;;;0.88;;
11139;SDS011;5624;49.388;11.350;2022-09-09T11:44:09;1.75;;;0.70;;
11139;SDS011;5624;49.388;11.350;2022-09-09T11:46:46;2.50;;;0.90;;
11139;SDS011;5624;49.388;11.350;2022-09-09T11:49:29;3.00;;;0.82;;
11139;SDS011;5624;49.388;11.350;2022-09-09T11:52:24;4.07;;;1.23;;
11139;SDS011;5624;49.388;11.350;2022-09-09T11:58:05;1.95;;;0.93;;
11139;SDS011;5624;49.388;11.350;2022-09-09T12:03:08;1.63;;;0.88;;
11139;SDS011;5624;49.388;11.350;2022-09-09T12:06:17;2.33;;;1.00;;
11139;SDS011;5624;49.388;11.350;2022-09-09T12:09:21;1.88;;;0.70;;
11139;SDS011;5624;49.388;11.350;2022-09-09T12:11:53;2.13;;;0.77;;
11139;SDS011;5624;49.388;11.350;2022-09-09T12:20:04;3.13;;;1.23;;
11139;SDS011;5624;49.388;11.350;2022-09-09T12:22:51;3.63;;;0.80;;
11139;SDS011;5624;49.388;11.350;2022-09-09T12:28:22;1.67;;;0.80;;
11139;SDS011;5624;49.388;11.350;2022-09-09T12:33:33;4.80;;;1.30;;
11139;SDS011;5624;49.388;11.350;2022-09-09T12:36:10;8.18;;;2.00;;
11139;SDS011;5624;49.388;11.350;2022-09-09T12:38:40;10.20;;;2.28;;
11139;SDS011;5624;49.388;11.350;2022-09-09T12:41:20;10.25;;;1.98;;
11139;SDS011;5624;49.388;11.350;2022-09-09T12:43:51;1.73;;;0.70;;
11139;SDS011;5624;49.388;11.350;2022-09-09T12:52:04;4.60;;;1.20;;
11139;SDS011;5624;49.388;11.350;2022-09-09T12:54:35;3.60;;;1.70;;
11139;SDS011;5624;49.388;11.350;2022-09-09T12:57:02;5.10;;;1.75;;
11139;SDS011;5624;49.388;11.350;2022-09-09T12:59:36;2.05;;;1.13;;
11139;SDS011;5624;49.388;11.350;2022-09-09T13:02:17;5.28;;;1.30;;
11139;SDS011;5624;49.388;11.350;2022-09-09T13:04:48;3.03;;;1.40;;
11139;SDS011;5624;49.388;11.350;2022-09-09T13:07:16;3.67;;;1.30;;
11139;SDS011;5624;49.388;11.350;2022-09-09T13:09:44;3.92;;;1.13;;
11139;SDS011;5624;49.388;11.350;2022-09-09T13:12:13;4.00;;;1.00;;
11139;SDS011;5624;49.388;11.350;2022-09-09T13:14:44;3.63;;;1.08;;
11139;SDS011;5624;49.388;11.350;2022-09-09T13:17:21;3.47;;;1.30;;
11139;SDS011;5624;49.388;11.350;2022-09-09T13:19:50;3.22;;;1.15;;
11139;SDS011;5624;49.388;11.350;2022-09-09T13:27:30;2.50;;;1.60;;
11139;SDS011;5624;49.388;11.350;2022-09-09T13:29:57;5.88;;;1.35;;
11139;SDS011;5624;49.388;11.350;2022-09-09T13:32:24;3.00;;;1.15;;
11139;SDS011;5624;49.388;11.350;2022-09-09T13:34:55;6.05;;;2.03;;
11139;SDS011;5624;49.388;11.350;2022-09-09T13:37:30;3.47;;;1.70;;
11139;SDS011;5624;49.388;11.350;2022-09-09T13:39:59;2.83;;;1.30;;
11139;SDS011;5624;49.388;11.350;2022-09-09T13:42:30;3.38;;;1.08;;
11139;SDS011;5624;49.388;11.350;2022-09-09T13:45:00;1.95;;;1.08;;
11139;SDS011;5624;49.388;11.350;2022-09-09T13:47:31;2.95;;;1.20;;
11139;SDS011;5624;49.388;11.350;2022-09-09T13:50:09;5.00;;;1.80;;
11139;SDS011;5624;49.388;11.350;2022-09-09T13:52:49;4.00;;;1.27;;
11139;SDS011;5624;49.388;11.350;2022-09-09T13:55:21;4.13;;;1.45;;
11139;SDS011;5624;49.388;11.350;2022-09-09T13:57:50;5.22;;;1.25;;
11139;SDS011;5624;49.388;11.350;2022-09-09T14:00:28;3.05;;;1.40;;
11139;SDS011;5624;49.388;11.350;2022-09-09T14:02:55;3.90;;;1.75;;
11139;SDS011;5624;49.388;11.350;2022-09-09T14:05:21;3.75;;;1.80;;
11139;SDS011;5624;49.388;11.350;2022-09-09T14:07:47;4.43;;;1.90;;
11139;SDS011;5624;49.388;11.350;2022-09-09T14:10:14;2.72;;;1.00;;
11139;SDS011;5624;49.388;11.350;2022-09-09T14:12:40;1.33;;;0.82;;
11139;SDS011;5624;49.388;11.350;2022-09-09T14:15:07;2.08;;;0.90;;
11139;SDS011;5624;49.388;11.350;2022-09-09T14:17:34;3.15;;;1.35;;
11139;SDS011;5624;49.388;11.350;2022-09-09T14:20:01;5.85;;;1.60;;
11139;SDS011;5624;49.388;11.350;2022-09-09T14:22:30;3.40;;;1.30;;
11139;SDS011;5624;49.388;11.350;2022-09-09T14:24:56;5.60;;;1.85;;
11139;SDS011;5624;49.388;11.350;2022-09-09T14:27:22;5.18;;;1.98;;
11139;SDS011;5624;49.388;11.350;2022-09-09T14:29:52;3.78;;;1.88;;
11139;SDS011;5624;49.388;11.350;2022-09-09T14:32:19;4.45;;;1.27;;
11139;SDS011;5624;49.388;11.350;2022-09-09T14:34:46;3.28;;;1.17;;
11139;SDS011;5624;49.388;11.350;2022-09-09T14:37:14;2.47;;;1.08;;
11139;SDS011;5624;49.388;11.350;2022-09-09T14:39:41;4.60;;;1.20;;
11139;SDS011;5624;49.388;11.350;2022-09-09T14:42:09;3.13;;;0.98;;
11139;SDS011;5624;49.388;11.350;2022-09-09T14:44:38;2.78;;;1.00;;
11139;SDS011;5624;49.388;11.350;2022-09-09T14:47:05;3.45;;;0.98;;
11139;SDS011;5624;49.388;11.350;2022-09-09T14:49:33;1.73;;;0.77;;
11139;SDS011;5624;49.388;11.350;2022-09-09T14:52:02;3.92;;;0.98;;
11139;SDS011;5624;49.388;11.350;2022-09-09T14:54:29;1.55;;;0.65;;
11139;SDS011;5624;49.388;11.350;2022-09-09T14:56:56;2.13;;;0.80;;
11139;SDS011;5624;49.388;11.350;2022-09-09T14:59:24;2.88;;;0.70;;
11139;SDS011;5624;49.388;11.350;2022-09-09T15:01:49;0.93;;;0.50;;
11139;SDS011;5624;49.388;11.350;2022-09-09T15:04:15;2.35;;;0.75;;
11139;SDS011;5624;49.388;11.350;2022-09-09T15:06:42;2.17;;;0.60;;
11139;SDS011;5624;49.388;11.350;2022-09-09T15:09:09;6.43;;;2.20;;
11139;SDS011;5624;49.388;11.350;2022-09-09T15:11:36;5.25;;;1.80;;
11139;SDS011;5624;49.388;11.350;2022-09-09T15:14:06;3.85;;;0.98;;
11139;SDS011;5624;49.388;11.350;2022-09-09T15:16:34;2.55;;;0.93;;
11139;SDS011;5624;49.388;11.350;2022-09-09T15:19:00;1.95;;;0.80;;
11139;SDS011;5624;49.388;11.350;2022-09-09T15:21:31;2.30;;;0.77;;
11139;SDS011;5624;49.388;11.350;2022-09-09T15:23:59;3.13;;;1.08;;
11139;SDS011;5624;49.388;11.350;2022-09-09T15:26:25;3.25;;;1.10;;
11139;SDS011;5624;49.388;11.350;2022-09-09T15:28:52;4.18;;;1.05;;
11139;SDS011;5624;49.388;11.350;2022-09-09T15:31:21;2.88;;;0.98;;
11139;SDS011;5624;49.388;11.350;2022-09-09T15:33:49;3.83;;;1.00;;
11139;SDS011;5624;49.388;11.350;2022-09-09T15:36:18;2.58;;;0.80;;
11139;SDS011;5624;49.388;11.350;2022-09-09T15:38:48;2.35;;;0.70;;
11139;SDS011;5624;49.388;11.350;2022-09-09T15:41:14;5.13;;;1.38;;
11139;SDS011;5624;49.388;11.350;2022-09-09T15:43:44;1.90;;;0.90;;
11139;SDS011;5624;49.388;11.350;2022-09-09T15:48:53;3.90;;;1.08;;
11139;SDS011;5624;49.388;11.350;2022-09-09T15:51:24;3.30;;;0.88;;
11139;SDS011;5624;49.388;11.350;2022-09-09T15:53:57;2.75;;;0.88;;
11139;SDS011;5624;49.388;11.350;2022-09-09T15:56:25;5.65;;;0.95;;
11139;SDS011;5624;49.388;11.350;2022-09-09T15:58:53;2.83;;;0.88;;
11139;SDS011;5624;49.388;11.350;2022-09-09T16:01:24;5.22;;;1.20;;
11139;SDS011;5624;49.388;11.350;2022-09-09T16:03:52;1.38;;;0.65;;
11139;SDS011;5624;49.388;11.350;2022-09-09T16:06:22;1.08;;;0.65;;
11139;SDS011;5624;49.388;11.350;2022-09-09T16:08:51;1.67;;;0.70;;
11139;SDS011;5624;49.388;11.350;2022-09-09T16:11:24;2.60;;;1.20;;
11139;SDS011;5624;49.388;11.350;2022-09-09T16:13:53;6.47;;;1.23;;
11139;SDS011;5624;49.388;11.350;2022-09-09T16:16:21;3.50;;;0.90;;
11139;SDS011;5624;49.388;11.350;2022-09-09T16:18:50;4.13;;;1.10;;
11139;SDS011;5624;49.388;11.350;2022-09-09T16:21:21;2.85;;;1.10;;
11139;SDS011;5624;49.388;11.350;2022-09-09T16:23:54;3.58;;;1.02;;
11139;SDS011;5624;49.388;11.350;2022-09-09T16:26:22;2.13;;;1.33;;
11139;SDS011;5624;49.388;11.350;2022-09-09T16:28:49;3.10;;;1.17;;
11139;SDS011;5624;49.388;11.350;2022-09-09T16:31:19;3.70;;;0.90;;
11139;SDS011;5624;49.388;11.350;2022-09-09T16:33:47;4.13;;;1.50;;
11139;SDS011;5624;49.388;11.350;2022-09-09T16:36:16;5.55;;;1.40;;
11139;SDS011;5624;49.388;11.350;2022-09-09T16:38:45;5.20;;;1.27;;
11139;SDS011;5624;49.388;11.350;2022-09-09T16:41:13;5.70;;;2.92;;
11139;SDS011;5624;49.388;11.350;2022-09-09T16:43:39;4.65;;;3.05;;
11139;SDS011;5624;49.388;11.350;2022-09-09T16:46:15;4.68;;;2.35;;
11139;SDS011;5624;49.388;11.350;2022-09-09T16:48:46;5.60;;;1.90;;
11139;SDS011;5624;49.388;11.350;2022-09-09T16:51:24;2.45;;;1.50;;
11139;SDS011;5624;49.388;11.350;2022-09-09T16:53:54;3.65;;;1.23;;
11139;SDS011;5624;49.388;11.350;2022-09-09T16:56:24;2.42;;;1.13;;
11139;SDS011;5624;49.388;11.350;2022-09-09T16:58:56;4.07;;;2.20;;
11139;SDS011;5624;49.388;11.350;2022-09-09T17:01:24;6.03;;;2.60;;
11139;SDS011;5624;49.388;11.350;2022-09-09T17:03:52;4.50;;;2.30;;
11139;SDS011;5624;49.388;11.350;2022-09-09T17:06:19;5.05;;;2.58;;
11139;SDS011;5624;49.388;11.350;2022-09-09T17:08:45;5.63;;;2.22;;
11139;SDS011;5624;49.388;11.350;2022-09-09T17:11:19;4.65;;;2.05;;
11139;SDS011;5624;49.388;11.350;2022-09-09T17:13:46;4.28;;;2.00;;
11139;SDS011;5624;49.388;11.350;2022-09-09T17:16:14;5.28;;;2.08;;
11139;SDS011;5624;49.388;11.350;2022-09-09T17:18:42;4.63;;;2.33;;
11139;SDS011;5624;49.388;11.350;2022-09-09T17:21:15;5.82;;;2.83;;
11139;SDS011;5624;49.388;11.350;2022-09-09T17:23:43;6.93;;;2.42;;
11139;SDS011;5624;49.388;11.350;2022-09-09T17:26:11;5.80;;;2.70;;
11139;SDS011;5624;49.388;11.350;2022-09-09T17:28:40;4.45;;;1.67;;
11139;SDS011;5624;49.388;11.350;2022-09-09T17:31:09;3.35;;;1.60;;